createdAt,value
2023-05-04T00:02:28.274Z,3.80
2023-05-04T00:08:21.783Z,3.60
2023-05-04T00:14:16.731Z,3.27
2023-05-04T00:20:10.675Z,4.20
2023-05-04T00:26:04.277Z,3.50
2023-05-04T00:31:59.220Z,3.20
2023-05-04T00:37:52.882Z,2.87
2023-05-04T00:43:46.931Z,3.40
2023-05-04T00:49:42.005Z,2.90
2023-05-04T00:55:37.818Z,3.13
2023-05-04T01:01:31.006Z,2.57
2023-05-04T01:07:31.467Z,3.00
2023-05-04T01:13:27.415Z,3.60
2023-05-04T01:19:20.513Z,3.77
2023-05-04T01:25:15.570Z,2.77
2023-05-04T01:31:11.846Z,3.03
2023-05-04T01:37:06.159Z,3.40
2023-05-04T01:43:00.569Z,3.17
2023-05-04T01:48:53.623Z,2.90
2023-05-04T01:54:48.662Z,3.30
2023-05-04T02:00:43.444Z,3.30
2023-05-04T02:06:36.941Z,2.83
2023-05-04T02:12:29.979Z,3.40
2023-05-04T02:18:26.352Z,3.30
2023-05-04T02:24:19.392Z,3.40
2023-05-04T02:30:14.528Z,3.13
2023-05-04T02:36:09.853Z,3.40
2023-05-04T02:42:03.438Z,3.60
2023-05-04T02:47:56.728Z,2.80
2023-05-04T02:53:51.578Z,3.10
2023-05-04T02:59:45.083Z,3.83
2023-05-04T03:05:38.529Z,3.33
2023-05-04T03:11:33.355Z,3.30
2023-05-04T03:17:26.473Z,3.27
2023-05-04T03:23:21.306Z,3.03
2023-05-04T03:29:16.142Z,3.27
2023-05-04T03:35:10.275Z,3.70
2023-05-04T03:41:04.286Z,3.47
2023-05-04T03:46:59.138Z,3.30
2023-05-04T03:52:52.200Z,3.23
2023-05-04T03:58:48.172Z,3.10
2023-05-04T04:04:47.436Z,4.10
2023-05-04T04:10:41.915Z,3.80
2023-05-04T04:16:35.108Z,3.53
2023-05-04T04:22:29.524Z,3.40
2023-05-04T04:28:23.282Z,3.60
2023-05-04T04:34:16.596Z,3.60
2023-05-04T04:40:12.029Z,4.13
2023-05-04T04:46:05.753Z,3.50
2023-05-04T04:51:58.783Z,3.50
2023-05-04T04:57:54.211Z,3.60
2023-05-04T05:03:47.475Z,3.20
2023-05-04T05:09:40.962Z,3.50
2023-05-04T05:15:35.398Z,3.70
2023-05-04T05:21:28.496Z,3.10
2023-05-04T05:27:21.630Z,3.57
2023-05-04T05:33:16.908Z,3.60
2023-05-04T05:39:12.249Z,3.13
2023-05-04T05:45:06.056Z,3.10
2023-05-04T05:51:00.935Z,2.97
2023-05-04T05:56:54.204Z,3.73
2023-05-04T06:02:47.515Z,3.27
2023-05-04T06:08:42.477Z,3.20
2023-05-04T06:14:35.449Z,2.60
2023-05-04T06:20:29.052Z,2.70
2023-05-04T06:26:23.564Z,2.50
2023-05-04T06:32:16.684Z,2.17
2023-05-04T06:38:10.044Z,2.10
2023-05-04T06:44:05.496Z,2.13
2023-05-04T06:49:58.836Z,2.30
2023-05-04T06:55:52.278Z,2.30
2023-05-04T07:01:47.490Z,2.40
2023-05-04T07:07:40.538Z,3.80
2023-05-04T07:13:33.537Z,3.70
2023-05-04T07:19:28.106Z,2.53
2023-05-04T07:25:21.340Z,1.87
2023-05-04T07:31:14.635Z,2.73
2023-05-04T07:37:09.316Z,3.67
2023-05-04T07:43:02.300Z,3.13
2023-05-04T07:48:55.263Z,3.20
2023-05-04T07:54:53.513Z,3.03
2023-05-04T08:00:46.687Z,2.93
2023-05-04T08:06:40.549Z,1.93
2023-05-04T08:12:35.043Z,2.10
2023-05-04T08:18:29.404Z,2.00
2023-05-04T08:24:22.647Z,2.07
2023-05-04T08:30:18.015Z,1.83
2023-05-04T08:36:11.340Z,2.17
2023-05-04T08:42:04.599Z,1.93
2023-05-04T08:47:59.019Z,1.60
2023-05-04T08:53:52.845Z,1.80
2023-05-04T08:59:50.298Z,1.80
2023-05-04T09:05:46.293Z,2.17
2023-05-04T09:11:39.297Z,1.70
2023-05-04T09:17:32.335Z,2.03
2023-05-04T09:23:27.501Z,1.77
2023-05-04T09:29:22.365Z,2.90
2023-05-04T09:35:25.662Z,1.80
2023-05-04T09:41:34.458Z,1.57
2023-05-04T09:47:34.512Z,1.80
2023-05-04T09:53:30.293Z,1.80
2023-05-04T09:59:30.433Z,2.20
2023-05-04T10:05:24.157Z,2.10
2023-05-04T10:11:19.326Z,2.07
2023-05-04T10:17:22.430Z,1.90
2023-05-04T10:23:35.235Z,2.10
2023-05-04T10:29:31.021Z,1.80
2023-05-04T10:35:26.793Z,2.20
2023-05-04T10:41:22.058Z,1.80
2023-05-04T10:47:15.662Z,1.83
2023-05-04T10:53:10.263Z,1.80
2023-05-04T10:59:10.540Z,1.50
2023-05-04T11:05:05.372Z,2.13
2023-05-04T11:11:05.412Z,2.13
2023-05-04T11:17:23.866Z,2.00
2023-05-04T11:23:20.603Z,1.40
2023-05-04T11:29:15.155Z,1.70
2023-05-04T11:35:10.489Z,1.60
2023-05-04T11:41:04.041Z,1.60
2023-05-04T11:46:58.509Z,1.63
2023-05-04T11:52:51.753Z,1.23
2023-05-04T11:58:45.151Z,3.43
2023-05-04T12:04:39.480Z,1.50
2023-05-04T12:10:35.037Z,1.97
2023-05-04T12:16:28.057Z,1.57
2023-05-04T12:22:29.509Z,1.80
2023-05-04T12:28:25.470Z,1.70
2023-05-04T12:34:18.692Z,1.63
2023-05-04T12:40:27.786Z,1.50
2023-05-04T12:46:22.628Z,2.03
2023-05-04T12:52:16.048Z,1.40
2023-05-04T12:58:11.145Z,1.30
2023-05-04T13:04:04.356Z,2.23
2023-05-04T13:09:57.392Z,1.47
2023-05-04T13:15:52.605Z,1.87
2023-05-04T13:21:45.633Z,1.67
2023-05-04T13:27:39.063Z,1.97
2023-05-04T13:33:34.997Z,1.80
2023-05-04T13:39:28.699Z,1.50
2023-05-04T13:45:23.131Z,1.60
2023-05-04T13:51:17.472Z,1.50
2023-05-04T13:57:10.459Z,1.53
2023-05-04T14:03:03.550Z,1.70
2023-05-04T14:08:58.315Z,1.23
2023-05-04T14:14:51.527Z,1.53
2023-05-04T14:20:44.520Z,1.87
2023-05-04T14:26:38.981Z,1.43
2023-05-04T14:32:32.138Z,1.30
2023-05-04T14:38:25.199Z,1.70
2023-05-04T14:44:20.053Z,1.63
2023-05-04T14:50:14.529Z,1.80
2023-05-04T14:56:08.242Z,1.43
2023-05-04T15:02:05.900Z,2.27
2023-05-04T15:07:59.557Z,2.50
2023-05-04T15:13:55.576Z,1.93
2023-05-04T15:19:50.179Z,1.83
2023-05-04T15:25:43.537Z,1.90
2023-05-04T15:31:37.023Z,2.17
2023-05-04T15:37:31.577Z,1.50
2023-05-04T15:43:24.539Z,1.80
2023-05-04T15:49:17.644Z,1.93
2023-05-04T15:55:23.550Z,1.73
2023-05-04T16:01:18.639Z,2.20
2023-05-04T16:07:11.869Z,2.30
2023-05-04T16:13:06.366Z,3.30
2023-05-04T16:18:59.667Z,3.53
2023-05-04T16:24:53.259Z,2.83
2023-05-04T16:30:50.352Z,3.33
2023-05-04T16:36:44.457Z,3.90
2023-05-04T16:42:37.455Z,3.23
2023-05-04T16:48:32.292Z,4.00
2023-05-04T16:54:25.810Z,4.10
2023-05-04T17:00:19.289Z,3.50
2023-05-04T17:06:13.665Z,4.37
2023-05-04T17:12:07.077Z,4.40
2023-05-04T17:18:00.236Z,4.17
2023-05-04T17:23:54.600Z,3.30
2023-05-04T17:29:47.664Z,3.63
2023-05-04T17:35:40.965Z,3.80
2023-05-04T17:41:35.471Z,4.00
2023-05-04T17:47:28.818Z,3.50
2023-05-04T17:53:21.911Z,4.73
2023-05-04T17:59:16.790Z,4.20
2023-05-04T18:05:10.509Z,5.13
2023-05-04T18:11:04.287Z,4.60
2023-05-04T18:16:59.170Z,4.30
2023-05-04T18:22:52.700Z,3.93
2023-05-04T18:28:45.661Z,4.47
2023-05-04T18:34:40.390Z,3.23
2023-05-04T18:40:33.802Z,2.87
2023-05-04T18:46:27.296Z,3.13
2023-05-04T18:52:22.657Z,3.00
2023-05-04T18:58:16.080Z,3.20
2023-05-04T19:04:09.163Z,2.67
2023-05-04T19:10:04.458Z,2.70
2023-05-04T19:15:57.576Z,2.93
2023-05-04T19:21:52.235Z,2.60
2023-05-04T19:27:48.038Z,2.63
2023-05-04T19:33:48.424Z,2.80
2023-05-04T19:39:42.444Z,3.07
2023-05-04T19:45:37.483Z,2.70
2023-05-04T19:51:30.998Z,3.20
2023-05-04T19:57:23.952Z,3.07
2023-05-04T20:03:18.625Z,3.10
2023-05-04T20:09:12.431Z,3.13
2023-05-04T20:15:07.291Z,3.47
2023-05-04T20:21:01.627Z,3.47
2023-05-04T20:26:55.070Z,4.17
2023-05-04T20:32:49.240Z,3.50
2023-05-04T20:38:44.027Z,4.00
2023-05-04T20:44:37.078Z,3.80
2023-05-04T20:50:30.685Z,4.37
2023-05-04T20:56:25.440Z,3.60
2023-05-04T21:02:18.882Z,3.80
2023-05-04T21:08:12.524Z,3.40
2023-05-04T21:14:06.904Z,3.70
2023-05-04T21:20:00.492Z,3.23
2023-05-04T21:26:01.825Z,3.10
2023-05-04T21:31:57.519Z,3.27
2023-05-04T21:37:50.969Z,2.57
2023-05-04T21:43:44.982Z,2.53
2023-05-04T21:49:39.580Z,2.30
2023-05-04T21:55:32.760Z,3.03
2023-05-04T22:01:26.830Z,2.00
2023-05-04T22:07:21.505Z,1.93
2023-05-04T22:13:14.985Z,1.83
2023-05-04T22:19:08.374Z,1.97
2023-05-04T22:25:02.900Z,2.03
2023-05-04T22:30:56.228Z,2.50
2023-05-04T22:36:49.580Z,1.63
2023-05-04T22:42:45.266Z,1.70
2023-05-04T22:48:38.441Z,2.30
2023-05-04T22:54:31.500Z,1.90
2023-05-04T23:00:26.435Z,1.90
2023-05-04T23:06:19.747Z,1.90
2023-05-04T23:12:12.956Z,2.10
2023-05-04T23:18:07.722Z,2.03
2023-05-04T23:24:01.021Z,2.53
2023-05-04T23:29:54.279Z,2.27
2023-05-04T23:35:48.705Z,2.03
2023-05-04T23:41:42.000Z,2.37
2023-05-04T23:47:35.288Z,1.93
2023-05-04T23:53:30.429Z,2.27
2023-05-04T23:59:23.640Z,1.70
